KLAX/LAX METAR and TAF weather

Enter ICAO airport designator
Station Type Date Time Source
KLAX METAR 2020/06/05 09:53 UTC NOAA

KLAX 050953Z 14006KT 10SM OVC016 18/12 A2981 RMK AO2 SLP092 T01830122 $


Station Type Date Time Source
KLAX Decoded METAR 2020/06/05 09:53 UTC NOAA

LOS ANGELES INTERNTL AIRPORT, CA, United States (KLAX) 33-56N 118-23W 46M
Jun 05, 2020 - 05:53 AM EDT / 2020.06.05 0953 UTC
Wind: from the SE (140 degrees) at 7 MPH (6 KT):0
Visibility: 10 mile(s):0
Sky conditions: overcast
Temperature: 64.9 F (18.3 C)
Dew Point: 54.0 F (12.2 C)
Relative Humidity: 67%
Pressure (altimeter): 29.81 in. Hg (1009 hPa)
ob: KLAX 050953Z 14006KT 10SM OVC016 18/12 A2981 RMK AO2 SLP092 T01830122
cycle: 10

Station Type Date Time Source
KLAX TAF 2020/06/05 09:15 UTC NOAA

TAF
AMD KLAX 050912Z 0509/0612 14008KT P6SM OVC016
FM051200 12010KT 6SM -DZ BR OVC022
FM051600 16010KT P6SM OVC025
FM052000 25012KT P6SM BKN035
FM060400 26010KT P6SM OVC030
FM060900 26008KT P6SM OVC025

Example: see airport list